Time;durP1;ratioP1;P1;durP2;ratioP2;P2;SDS_P1;SDS_P2;PMS_P1;PMS_P2;Temp;Humidity;BMP_temperature;BMP_pressure;BME280_temperature;BME280_humidity;BME280_pressure;Samples;Min_cycle;Max_cycle;Signal;HPM_P1;HPM_P2
2022/09/20 00:01:37;;;;;;;;;2.50;2.50;;;26.79;100729.46;;;;117066;1194;25721;-62
2022/09/20 00:04:06;;;;;;;;;0.67;0.33;;;26.77;100720.50;;;;117061;1193;25211;-62
2022/09/20 00:06:35;;;;;;;;;2.50;2.50;;;26.77;100734.02;;;;116885;1194;25374;-63
2022/09/20 00:09:04;;;;;;;;;1.67;1.67;;;26.77;100738.33;;;;116888;1194;25271;-62
2022/09/20 00:11:34;;;;;;;;;2.33;1.67;;;26.77;100744.58;;;;117041;1194;25314;-62
2022/09/20 00:14:05;;;;;;;;;2.67;2.00;;;26.76;100747.14;;;;117038;1193;25111;-62
2022/09/20 00:16:36;;;;;;;;;3.00;3.00;;;26.75;100742.73;;;;117027;1193;25507;-63
2022/09/20 00:19:06;;;;;;;;;3.00;1.50;;;26.75;100749.61;;;;117027;1193;25698;-62
2022/09/20 00:21:36;;;;;;;;;3.25;1.50;;;26.74;100753.27;;;;117043;1193;24855;-62
2022/09/20 00:24:05;;;;;;;;;2.00;2.00;;;26.73;100741.02;;;;117051;1193;25683;-61
2022/09/20 00:26:34;;;;;;;;;1.33;0.67;;;26.73;100736.97;;;;117047;1194;24972;-62
2022/09/20 00:29:03;;;;;;;;;2.00;2.00;;;26.73;100737.52;;;;117032;1192;25442;-62
2022/09/20 00:31:31;;;;;;;;;2.00;2.00;;;26.73;100738.75;;;;117035;1193;25690;-62
2022/09/20 00:36:46;;;;;;;;;1.00;1.00;;;26.72;100740.20;;;;117024;1193;25627;-62
2022/09/20 00:39:15;;;;;;;;;1.75;1.75;;;26.72;100731.95;;;;116839;1194;26111;-62
2022/09/20 00:41:43;;;;;;;;;2.67;0.67;;;26.71;100731.75;;;;117069;1193;24889;-61
2022/09/20 00:44:41;;;;;;;;;1.67;1.67;;;26.71;100728.98;;;;117015;1193;25436;-62
2022/09/20 00:47:31;;;;;;;;;1.33;0.00;;;26.71;100726.04;;;;117050;1193;24897;-63
2022/09/20 00:50:18;;;;;;;;;3.00;1.25;;;26.71;100718.23;;;;117038;1194;25153;-63
2022/09/20 00:52:49;;;;;;;;;2.00;2.00;;;26.71;100720.23;;;;117020;1194;24757;-63
2022/09/20 00:55:18;;;;;;;;;1.50;1.50;;;26.71;100719.11;;;;117053;1193;24739;-63
2022/09/20 00:57:47;;;;;;;;;1.25;1.25;;;26.71;100724.77;;;;117037;1193;25148;-62
2022/09/20 01:00:16;;;;;;;;;1.67;1.67;;;26.71;100729.06;;;;117033;1193;24902;-63
2022/09/20 01:02:52;;;;;;;;;2.50;2.00;;;26.71;100727.80;;;;117054;1193;25123;-63
2022/09/20 01:05:20;;;;;;;;;3.00;1.00;;;26.70;100732.46;;;;117117;1193;25617;-63
2022/09/20 01:07:50;;;;;;;;;0.50;0.50;;;26.72;100727.77;;;;117064;1193;25109;-62
2022/09/20 01:10:18;;;;;;;;;1.75;1.25;;;26.72;100719.48;;;;117011;1194;25373;-63
2022/09/20 01:12:48;;;;;;;;;2.25;1.25;;;26.72;100718.33;;;;117051;1193;25202;-62
2022/09/20 01:15:17;;;;;;;;;0.25;0.25;;;26.70;100728.14;;;;117046;1194;25147;-63
2022/09/20 01:17:48;;;;;;;;;0.75;0.75;;;26.70;100728.88;;;;117124;1192;25749;-64
2022/09/20 01:20:24;;;;;;;;;0.50;0.50;;;26.68;100722.77;;;;117117;1192;25312;-64
2022/09/20 01:23:16;;;;;;;;;3.67;2.00;;;26.68;100716.20;;;;117031;1193;25020;-64
2022/09/20 01:26:05;;;;;;;;;2.00;2.00;;;26.69;100712.02;;;;117081;1191;25305;-64
2022/09/20 01:28:34;;;;;;;;;1.00;1.00;;;26.67;100707.27;;;;117126;1193;24953;-64
2022/09/20 01:31:21;;;;;;;;;2.00;1.00;;;26.66;100704.27;;;;117059;1192;25538;-61
2022/09/20 01:33:49;;;;;;;;;1.00;1.00;;;26.65;100702.73;;;;117011;1193;25170;-63
2022/09/20 01:36:24;;;;;;;;;0.33;0.33;;;26.65;100699.34;;;;117057;1193;24758;-63
2022/09/20 01:39:11;;;;;;;;;3.75;1.75;;;26.64;100695.24;;;;117060;1193;25542;-63
2022/09/20 01:41:45;;;;;;;;;1.00;1.00;;;26.65;100699.27;;;;117103;1193;25142;-64
2022/09/20 01:44:26;;;;;;;;;2.50;2.00;;;26.65;100700.02;;;;117131;1193;25087;-64
2022/09/20 01:47:23;;;;;;;;;0.33;0.33;;;26.67;100703.27;;;;117064;1193;25661;-63
2022/09/20 01:50:30;;;;;;;;;1.00;1.00;;;26.69;100703.36;;;;116933;1191;25410;-63
2022/09/20 01:53:55;;;;;;;;;2.00;1.00;;;26.74;100697.62;;;;117109;1193;25631;-63
2022/09/20 01:56:47;;;;;;;;;2.00;1.75;;;26.76;100699.65;;;;116744;1197;25398;-63
2022/09/20 01:59:34;;;;;;;;;0.33;0.33;;;26.75;100705.71;;;;116693;1197;25614;-62
2022/09/20 02:02:22;;;;;;;;;2.25;1.50;;;26.71;100708.33;;;;116990;1193;25568;-63
2022/09/20 02:05:08;;;;;;;;;3.00;1.75;;;26.71;100707.89;;;;117103;1193;25666;-63
2022/09/20 02:07:42;;;;;;;;;3.50;1.50;;;26.72;100710.98;;;;117078;1192;25438;-61
2022/09/20 02:10:26;;;;;;;;;0.33;0.33;;;26.69;100713.79;;;;117081;1192;25238;-64
2022/09/20 02:13:28;;;;;;;;;1.75;1.75;;;26.67;100711.41;;;;117118;1193;25563;-62
2022/09/20 02:16:30;;;;;;;;;3.33;1.67;;;26.68;100715.42;;;;117011;1193;25462;-62
2022/09/20 02:19:31;;;;;;;;;2.25;2.00;;;26.71;100717.46;;;;117155;1191;24866;-63
2022/09/20 02:22:24;;;;;;;;;0.50;0.50;;;26.71;100720.23;;;;117104;1192;24774;-62
2022/09/20 02:25:13;;;;;;;;;1.50;1.50;;;26.69;100717.89;;;;117111;1192;25528;-62
2022/09/20 02:28:20;;;;;;;;;1.00;1.00;;;26.70;100715.48;;;;117116;1192;25373;-63
2022/09/20 02:31:05;;;;;;;;;1.50;1.50;;;26.72;100717.63;;;;117024;1193;25751;-63
2022/09/20 02:33:50;;;;;;;;;1.00;0.67;;;26.72;100722.05;;;;117100;1192;25289;-62
2022/09/20 02:36:35;;;;;;;;;2.50;2.00;;;26.70;100724.13;;;;117100;1193;25102;-63
2022/09/20 02:39:34;;;;;;;;;1.00;1.00;;;26.69;100733.71;;;;117120;1192;24934;-62
2022/09/20 02:42:12;;;;;;;;;0.25;0.25;;;26.68;100736.16;;;;117126;1193;24687;-62
2022/09/20 02:44:53;;;;;;;;;0.50;0.50;;;26.70;100742.70;;;;117083;1192;25057;-62
2022/09/20 02:47:25;;;;;;;;;0.75;0.75;;;26.70;100747.72;;;;117103;1193;25286;-63
2022/09/20 02:50:10;;;;;;;;;2.00;2.00;;;26.68;100750.83;;;;117132;1193;25015;-62
2022/09/20 02:52:54;;;;;;;;;0.00;0.00;;;26.65;100753.50;;;;117155;1191;25168;-62
2022/09/20 02:55:49;;;;;;;;;1.00;1.00;;;26.64;100754.40;;;;117109;1192;24821;-62
2022/09/20 02:58:34;;;;;;;;;2.00;2.00;;;26.62;100756.10;;;;117064;1193;25121;-62
2022/09/20 03:01:31;;;;;;;;;1.00;1.00;;;26.61;100754.02;;;;117047;1191;25313;-62
2022/09/20 03:04:34;;;;;;;;;1.00;1.00;;;26.63;100759.40;;;;117057;1193;24672;-62
2022/09/20 03:07:08;;;;;;;;;3.00;2.00;;;26.65;100764.88;;;;117092;1191;25084;-62
2022/09/20 03:10:08;;;;;;;;;2.00;0.50;;;26.63;100766.27;;;;117106;1193;25237;-62
2022/09/20 03:12:37;;;;;;;;;1.50;1.50;;;26.63;100768.87;;;;117014;1194;25251;-62
2022/09/20 03:15:27;;;;;;;;;2.00;2.00;;;26.65;100766.08;;;;117133;1193;25579;-61
2022/09/20 03:18:08;;;;;;;;;2.75;1.00;;;26.63;100770.10;;;;117083;1192;25029;-62
2022/09/20 03:20:57;;;;;;;;;1.00;1.00;;;26.62;100775.28;;;;117130;1191;25210;-61
2022/09/20 03:23:32;;;;;;;;;1.25;1.00;;;26.64;100776.61;;;;117151;1192;25248;-63
2022/09/20 03:26:30;;;;;;;;;1.50;1.50;;;26.64;100779.32;;;;117127;1192;25229;-62
2022/09/20 03:29:01;;;;;;;;;1.00;1.00;;;26.65;100779.35;;;;117082;1191;25673;-63
2022/09/20 03:31:37;;;;;;;;;1.00;1.00;;;26.67;100780.28;;;;117018;1192;24710;-63
2022/09/20 03:34:36;;;;;;;;;1.00;1.00;;;26.67;100781.18;;;;117088;1192;25571;-62
2022/09/20 03:37:37;;;;;;;;;0.50;0.00;;;26.64;100782.77;;;;117072;1192;25648;-61
2022/09/20 03:40:24;;;;;;;;;1.33;1.33;;;26.65;100781.89;;;;116933;1193;25543;-62
2022/09/20 03:42:53;;;;;;;;;0.25;0.25;;;26.66;100781.55;;;;117123;1193;25029;-63
2022/09/20 03:45:52;;;;;;;;;0.00;0.00;;;26.64;100782.48;;;;117149;1191;25165;-62
2022/09/20 03:48:51;;;;;;;;;1.25;1.25;;;26.62;100784.48;;;;117135;1193;24898;-63
2022/09/20 03:51:28;;;;;;;;;1.25;0.50;;;26.61;100787.05;;;;117122;1192;25451;-64
2022/09/20 03:54:23;;;;;;;;;3.50;1.50;;;26.62;100790.28;;;;117119;1193;24732;-63
2022/09/20 03:57:06;;;;;;;;;1.00;1.00;;;26.60;100792.70;;;;117111;1191;24899;-61
2022/09/20 04:00:09;;;;;;;;;1.33;1.33;;;26.58;100794.91;;;;117109;1193;25001;-62
2022/09/20 04:02:49;;;;;;;;;3.00;1.00;;;26.54;100804.42;;;;117133;1192;25415;-63
2022/09/20 04:05:26;;;;;;;;;2.50;0.50;;;26.52;100802.84;;;;117113;1192;25124;-63
2022/09/20 04:07:57;;;;;;;;;0.00;0.00;;;26.51;100804.79;;;;117142;1192;25071;-63
2022/09/20 04:10:40;;;;;;;;;1.00;1.00;;;26.53;100810.66;;;;117095;1193;25074;-62
2022/09/20 04:13:31;;;;;;;;;2.00;2.00;;;26.52;100817.67;;;;117093;1192;25621;-62
2022/09/20 04:16:08;;;;;;;;;0.50;0.50;;;26.56;100817.55;;;;116953;1193;25400;-62
2022/09/20 04:18:47;;;;;;;;;0.67;0.67;;;26.57;100822.09;;;;117001;1193;25239;-63
2022/09/20 04:21:29;;;;;;;;;1.00;1.00;;;26.56;100824.34;;;;117146;1192;25195;-63
2022/09/20 04:24:04;;;;;;;;;2.00;1.00;;;26.58;100825.02;;;;117129;1191;25428;-62
2022/09/20 04:26:36;;;;;;;;;1.00;1.00;;;26.61;100828.70;;;;117123;1193;24983;-62
2022/09/20 04:29:37;;;;;;;;;2.25;1.00;;;26.61;100830.94;;;;117081;1192;25297;-63
2022/09/20 04:32:17;;;;;;;;;2.25;1.00;;;26.62;100834.34;;;;117125;1193;25230;-63
2022/09/20 04:37:56;;;;;;;;;2.00;2.00;;;26.62;100841.92;;;;117170;1193;25540;-64
2022/09/20 04:40:32;;;;;;;;;1.00;1.00;;;26.63;100842.46;;;;117046;1193;25338;-63
2022/09/20 04:43:06;;;;;;;;;1.25;0.25;;;26.61;100844.68;;;;117074;1192;24827;-64
2022/09/20 04:46:34;;;;;;;;;0.00;0.00;;;26.61;100845.98;;;;117075;1192;25349;-63
2022/09/20 04:49:32;;;;;;;;;0.67;0.67;;;26.62;100849.52;;;;116799;1195;25374;-63
2022/09/20 04:52:45;;;;;;;;;1.00;1.00;;;26.66;100852.35;;;;117060;1192;25876;-63
2022/09/20 04:55:43;;;;;;;;;1.67;1.00;;;26.65;100852.92;;;;116996;1193;25784;-63
2022/09/20 04:58:27;;;;;;;;;1.00;1.00;;;26.64;100853.71;;;;117070;1192;25479;-63
2022/09/20 05:00:55;;;;;;;;;1.33;0.33;;;26.61;100856.70;;;;117018;1192;25160;-63
2022/09/20 05:03:41;;;;;;;;;1.00;1.00;;;26.61;100855.92;;;;117016;1193;26118;-63
2022/09/20 05:06:30;;;;;;;;;1.00;1.00;;;26.60;100856.14;;;;117118;1192;25096;-64
2022/09/20 05:09:04;;;;;;;;;1.75;1.50;;;26.59;100858.36;;;;117121;1192;25788;-63
2022/09/20 05:11:47;;;;;;;;;0.00;0.00;;;26.59;100861.76;;;;117051;1193;25775;-63
2022/09/20 05:14:29;;;;;;;;;1.00;1.00;;;26.57;100865.20;;;;117122;1191;25531;-62
2022/09/20 05:17:05;;;;;;;;;2.00;2.00;;;26.59;100866.41;;;;117092;1193;25133;-61
2022/09/20 05:19:47;;;;;;;;;1.00;1.00;;;26.58;100869.98;;;;117098;1191;25308;-62
2022/09/20 05:22:52;;;;;;;;;1.00;1.00;;;26.57;100870.93;;;;117010;1191;25483;-62
2022/09/20 05:25:55;;;;;;;;;1.50;0.75;;;26.58;100873.78;;;;117078;1193;25161;-62
2022/09/20 05:28:34;;;;;;;;;1.75;1.75;;;26.57;100872.73;;;;117084;1191;25524;-61
2022/09/20 05:31:11;;;;;;;;;1.00;1.00;;;26.55;100873.39;;;;117040;1193;25621;-62
2022/09/20 05:33:50;;;;;;;;;1.00;1.00;;;26.55;100872.98;;;;117023;1192;26203;-62
2022/09/20 05:36:30;;;;;;;;;2.50;1.50;;;26.56;100874.94;;;;117027;1193;25614;-63
2022/09/20 05:39:32;;;;;;;;;0.67;0.67;;;26.58;100879.08;;;;117020;1194;25518;-61
2022/09/20 05:42:27;;;;;;;;;2.75;2.00;;;26.58;100874.44;;;;117030;1193;24866;-62
2022/09/20 05:45:16;;;;;;;;;1.00;0.75;;;26.57;100879.92;;;;117125;1193;25446;-63
2022/09/20 05:48:09;;;;;;;;;1.50;1.50;;;26.59;100878.71;;;;117099;1191;25290;-62
2022/09/20 05:51:26;;;;;;;;;1.50;0.75;;;26.57;100874.65;;;;117078;1191;24801;-63
2022/09/20 05:54:38;;;;;;;;;1.50;1.50;;;26.59;100877.44;;;;116840;1193;25016;-62
2022/09/20 05:57:06;;;;;;;;;2.33;2.00;;;26.62;100875.88;;;;116979;1192;25637;-61
2022/09/20 05:59:46;;;;;;;;;0.33;0.33;;;26.62;100875.27;;;;117034;1193;25676;-62
2022/09/20 06:02:31;;;;;;;;;2.00;2.00;;;26.60;100874.89;;;;116840;1192;25284;-63
2022/09/20 06:05:35;;;;;;;;;2.75;1.75;;;26.62;100876.73;;;;117051;1192;24723;-62
2022/09/20 06:08:14;;;;;;;;;1.00;1.00;;;26.65;100870.92;;;;116896;1192;24799;-64
2022/09/20 06:10:49;;;;;;;;;2.33;0.67;;;26.69;100869.36;;;;116999;1193;25630;-63
2022/09/20 06:14:00;;;;;;;;;3.00;1.00;;;26.69;100869.14;;;;117060;1193;25064;-62
2022/09/20 06:16:55;;;;;;;;;2.00;1.00;;;26.70;100871.42;;;;117093;1193;25681;-63
2022/09/20 06:19:23;;;;;;;;;2.00;0.00;;;26.74;100867.56;;;;116962;1192;25484;-63
2022/09/20 06:21:55;;;;;;;;;1.00;1.00;;;26.78;100863.08;;;;117008;1193;24969;-64
2022/09/20 06:24:36;;;;;;;;;2.00;1.00;;;26.78;100866.72;;;;117021;1193;25068;-63
2022/09/20 06:27:12;;;;;;;;;1.00;1.00;;;26.80;100868.48;;;;117094;1192;24883;-63
2022/09/20 06:29:47;;;;;;;;;1.00;1.00;;;26.80;100872.55;;;;117006;1193;25351;-65
2022/09/20 06:32:16;;;;;;;;;0.00;0.00;;;26.81;100870.91;;;;116974;1194;25206;-62
2022/09/20 06:34:46;;;;;;;;;2.00;2.00;;;26.82;100872.98;;;;117019;1193;25529;-63
2022/09/20 06:43:31;;;;;;;;;0.50;0.50;;;26.82;100873.55;;;;117043;1193;25172;-65
2022/09/20 06:45:59;;;;;;;;;1.00;1.00;;;26.82;100873.48;;;;117030;1194;25015;-62
2022/09/20 06:48:29;;;;;;;;;0.50;0.50;;;26.81;100879.23;;;;116908;1193;25442;-63
2022/09/20 06:50:57;;;;;;;;;4.67;1.67;;;26.81;100885.37;;;;117067;1193;25282;-63
2022/09/20 06:53:29;;;;;;;;;1.50;1.00;;;26.82;100888.23;;;;117129;1192;25584;-63
2022/09/20 06:55:58;;;;;;;;;1.50;1.00;;;26.82;100883.64;;;;117020;1193;24803;-64
2022/09/20 06:58:27;;;;;;;;;1.00;1.00;;;26.83;100884.86;;;;117055;1193;25015;-65
2022/09/20 07:00:55;;;;;;;;;2.00;1.00;;;26.84;100884.38;;;;117094;1193;25484;-66
2022/09/20 07:03:24;;;;;;;;;1.00;1.00;;;26.85;100883.45;;;;117033;1192;25104;-64
2022/09/20 07:05:52;;;;;;;;;0.00;0.00;;;26.87;100892.23;;;;117033;1193;25250;-66
2022/09/20 07:08:21;;;;;;;;;2.25;2.25;;;26.90;100890.88;;;;116959;1193;25483;-64
2022/09/20 07:10:49;;;;;;;;;1.00;1.00;;;26.90;100895.71;;;;117026;1193;25288;-63
2022/09/20 07:13:19;;;;;;;;;1.50;1.50;;;26.92;100900.11;;;;116978;1193;25330;-63
2022/09/20 07:15:49;;;;;;;;;0.00;0.00;;;26.94;100899.61;;;;116950;1192;25488;-63
2022/09/20 07:18:18;;;;;;;;;2.00;1.00;;;26.97;100906.00;;;;117036;1193;25684;-65
2022/09/20 07:20:46;;;;;;;;;2.00;1.67;;;26.98;100903.88;;;;117015;1193;25380;-64
2022/09/20 07:23:15;;;;;;;;;1.00;1.00;;;26.98;100901.39;;;;116925;1193;25215;-64
2022/09/20 07:25:43;;;;;;;;;3.00;1.50;;;26.99;100904.23;;;;116983;1194;25764;-64
2022/09/20 07:28:11;;;;;;;;;1.33;1.33;;;26.99;100901.88;;;;116885;1195;25394;-65
2022/09/20 07:30:40;;;;;;;;;2.75;2.25;;;27.00;100906.70;;;;116811;1195;25052;-65
2022/09/20 07:33:10;;;;;;;;;2.00;2.00;;;27.01;100913.19;;;;117073;1191;25660;-66
2022/09/20 07:35:40;;;;;;;;;0.75;0.75;;;27.05;100915.89;;;;117018;1193;25918;-66
2022/09/20 07:38:09;;;;;;;;;1.00;1.00;;;27.06;100922.43;;;;117028;1193;25383;-65
2022/09/20 07:40:37;;;;;;;;;2.00;1.00;;;27.10;100919.30;;;;117115;1191;25295;-65
2022/09/20 07:43:06;;;;;;;;;1.33;1.33;;;27.11;100920.92;;;;117061;1194;25028;-64
2022/09/20 07:45:37;;;;;;;;;3.00;3.00;;;27.11;100926.58;;;;117030;1193;24991;-64
2022/09/20 07:48:08;;;;;;;;;2.67;2.33;;;27.11;100925.88;;;;117005;1193;24743;-67
2022/09/20 07:50:36;;;;;;;;;3.00;1.00;;;27.13;100930.17;;;;117019;1192;26266;-65
2022/09/20 07:53:05;;;;;;;;;2.00;2.00;;;27.18;100930.98;;;;117012;1192;25008;-66
2022/09/20 07:55:34;;;;;;;;;1.00;1.00;;;27.13;100930.92;;;;117039;1193;24912;-65
2022/09/20 07:58:03;;;;;;;;;1.75;0.75;;;27.18;100934.71;;;;116895;1194;25759;-64
2022/09/20 08:00:31;;;;;;;;;2.33;1.00;;;27.17;100931.80;;;;116806;1194;25458;-63
2022/09/20 08:02:59;;;;;;;;;4.33;2.00;;;27.20;100937.32;;;;116997;1193;25380;-65
2022/09/20 08:05:28;;;;;;;;;1.25;1.25;;;27.22;100931.82;;;;117018;1193;25193;-64
2022/09/20 08:07:56;;;;;;;;;0.50;0.50;;;27.23;100932.27;;;;117048;1193;24792;-64
2022/09/20 08:10:25;;;;;;;;;0.67;0.67;;;27.24;100936.80;;;;117011;1193;25177;-64
2022/09/20 08:12:53;;;;;;;;;1.00;1.00;;;27.24;100942.91;;;;117045;1193;25786;-64
2022/09/20 08:15:43;;;;;;;;;3.00;1.00;;;27.27;100942.30;;;;117041;1193;25465;-65
2022/09/20 08:18:12;;;;;;;;;1.75;0.50;;;27.31;100941.02;;;;117125;1193;25402;-65
2022/09/20 08:20:40;;;;;;;;;2.25;1.00;;;27.30;100941.73;;;;117037;1194;24882;-64
2022/09/20 08:23:09;;;;;;;;;1.00;1.00;;;27.30;100939.70;;;;117060;1193;25596;-65
2022/09/20 08:25:51;;;;;;;;;1.00;1.00;;;27.31;100942.41;;;;117030;1193;25786;-64
2022/09/20 08:28:19;;;;;;;;;4.00;2.50;;;27.33;100943.58;;;;117022;1192;25030;-64
2022/09/20 08:30:47;;;;;;;;;0.50;0.50;;;27.32;100937.70;;;;117043;1193;25184;-64
2022/09/20 08:33:16;;;;;;;;;0.75;0.75;;;27.32;100934.25;;;;117014;1193;25570;-64
2022/09/20 08:35:48;;;;;;;;;1.00;0.50;;;27.31;100934.41;;;;117006;1192;25453;-64
2022/09/20 08:38:18;;;;;;;;;2.00;1.00;;;27.31;100938.55;;;;117096;1192;25749;-65
2022/09/20 08:41:11;;;;;;;;;2.33;1.00;;;27.33;100941.54;;;;117064;1193;24834;-64
2022/09/20 08:43:50;;;;;;;;;3.75;2.75;;;27.36;100940.31;;;;117037;1193;24855;-64
2022/09/20 08:46:27;;;;;;;;;3.50;0.75;;;27.35;100942.01;;;;117042;1193;25177;-64
2022/09/20 08:48:56;;;;;;;;;2.75;1.75;;;27.36;100940.27;;;;117036;1193;25464;-64
2022/09/20 08:51:29;;;;;;;;;1.50;0.25;;;27.37;100939.88;;;;117049;1193;25445;-64
2022/09/20 08:53:59;;;;;;;;;2.75;0.75;;;27.36;100941.55;;;;117059;1192;25127;-65
2022/09/20 08:56:32;;;;;;;;;2.00;1.25;;;27.37;100942.92;;;;117030;1192;24796;-65
2022/09/20 08:59:01;;;;;;;;;1.00;1.00;;;27.35;100944.10;;;;117037;1193;26068;-64
2022/09/20 09:01:31;;;;;;;;;3.75;0.75;;;27.36;100940.23;;;;117061;1193;25654;-65
2022/09/20 09:04:11;;;;;;;;;2.00;0.25;;;27.36;100934.30;;;;117116;1192;25654;-64
2022/09/20 09:06:41;;;;;;;;;1.33;0.67;;;27.35;100939.41;;;;117096;1193;24907;-64
2022/09/20 09:09:36;;;;;;;;;1.25;1.00;;;27.34;100938.33;;;;117049;1192;25004;-65
2022/09/20 09:12:05;;;;;;;;;3.25;0.75;;;27.35;100942.20;;;;117002;1193;25711;-64
2022/09/20 09:17:29;;;;;;;;;4.00;1.00;;;27.35;100943.41;;;;117106;1192;25379;-64
2022/09/20 09:20:06;;;;;;;;;2.00;1.00;;;27.33;100938.25;;;;117066;1193;25784;-64
2022/09/20 09:22:36;;;;;;;;;1.00;1.00;;;27.33;100942.55;;;;117023;1193;25001;-64
2022/09/20 09:25:08;;;;;;;;;1.25;1.25;;;27.33;100942.54;;;;117123;1192;25926;-65
2022/09/20 09:27:53;;;;;;;;;1.00;1.00;;;27.32;100946.63;;;;117084;1192;25077;-64
2022/09/20 09:30:22;;;;;;;;;1.00;1.00;;;27.32;100946.23;;;;117065;1193;25475;-64
2022/09/20 09:32:52;;;;;;;;;1.00;1.00;;;27.33;100947.61;;;;117029;1193;25101;-65
2022/09/20 09:35:30;;;;;;;;;0.50;0.50;;;27.31;100945.23;;;;117101;1192;25127;-64
2022/09/20 09:38:01;;;;;;;;;1.75;1.75;;;27.29;100949.01;;;;117130;1192;25380;-64
2022/09/20 09:40:31;;;;;;;;;1.50;1.00;;;27.28;100953.51;;;;117118;1192;25797;-65
2022/09/20 09:43:01;;;;;;;;;0.67;0.67;;;27.27;100954.44;;;;117055;1193;24924;-64
2022/09/20 09:45:38;;;;;;;;;3.00;1.00;;;27.26;100950.32;;;;117040;1193;25178;-64
2022/09/20 09:48:26;;;;;;;;;1.00;1.00;;;27.25;100944.73;;;;117058;1193;25318;-65
2022/09/20 09:51:18;;;;;;;;;1.00;1.00;;;27.25;100941.54;;;;117124;1192;25414;-65
2022/09/20 09:53:48;;;;;;;;;0.67;0.67;;;27.25;100932.81;;;;117120;1192;24862;-64
2022/09/20 09:56:34;;;;;;;;;1.00;1.00;;;27.25;100926.56;;;;117092;1193;25300;-65
2022/09/20 09:59:26;;;;;;;;;1.00;1.00;;;27.25;100931.09;;;;117065;1192;24793;-65
2022/09/20 10:02:17;;;;;;;;;1.33;1.00;;;27.25;100940.10;;;;117107;1193;25628;-64
2022/09/20 10:05:11;;;;;;;;;1.75;1.00;;;27.26;100937.66;;;;117133;1193;25320;-64
2022/09/20 10:08:07;;;;;;;;;4.50;1.00;;;27.27;100937.40;;;;117094;1193;25559;-65
2022/09/20 10:10:53;;;;;;;;;2.33;1.67;;;27.27;100932.73;;;;117123;1193;25793;-64
2022/09/20 10:14:02;;;;;;;;;1.00;1.00;;;27.29;100931.52;;;;117069;1192;25404;-64
2022/09/20 10:17:14;;;;;;;;;1.67;1.00;;;27.29;100934.94;;;;117139;1193;25320;-64
2022/09/20 10:20:06;;;;;;;;;1.33;0.00;;;27.27;100940.96;;;;117073;1192;24746;-64
2022/09/20 10:22:55;;;;;;;;;2.00;1.00;;;27.26;100939.33;;;;117059;1193;25299;-65
2022/09/20 10:26:07;;;;;;;;;0.75;0.00;;;27.32;100934.70;;;;117109;1193;25994;-64
2022/09/20 10:28:51;;;;;;;;;2.00;1.00;;;27.35;100938.86;;;;117030;1193;25017;-65
2022/09/20 10:32:06;;;;;;;;;2.67;1.00;;;27.32;100941.05;;;;117110;1193;25023;-64
2022/09/20 10:35:05;;;;;;;;;0.33;0.33;;;27.33;100940.48;;;;116877;1193;25324;-64
2022/09/20 10:37:45;;;;;;;;;0.75;0.75;;;27.35;100935.13;;;;117048;1192;25523;-65
2022/09/20 10:40:19;;;;;;;;;1.00;1.00;;;27.33;100935.46;;;;117026;1193;25649;-63
2022/09/20 10:45:53;;;;;;;;;1.75;0.50;;;27.29;100931.55;;;;117048;1193;25014;-64
2022/09/20 10:48:47;;;;;;;;;1.75;1.75;;;27.31;100924.19;;;;117083;1193;24851;-65
2022/09/20 10:51:24;;;;;;;;;1.00;0.00;;;27.33;100925.52;;;;117048;1193;25365;-64
2022/09/20 10:54:29;;;;;;;;;1.00;1.00;;;27.31;100921.83;;;;117109;1191;26566;-65
2022/09/20 10:57:51;;;;;;;;;2.25;0.75;;;27.31;100926.92;;;;116766;1194;25453;-64
2022/09/20 11:00:20;;;;;;;;;3.50;1.00;;;27.35;100916.02;;;;116620;1197;24939;-65
2022/09/20 11:03:02;;;;;;;;;1.50;1.00;;;27.35;100921.79;;;;117040;1193;24985;-65
2022/09/20 11:05:34;;;;;;;;;0.75;0.75;;;27.30;100920.36;;;;117028;1193;24836;-65
2022/09/20 11:08:13;;;;;;;;;1.00;1.00;;;27.28;100918.25;;;;117119;1192;25246;-65
2022/09/20 11:10:43;;;;;;;;;1.00;1.00;;;27.26;100912.92;;;;117021;1193;25703;-64
2022/09/20 11:13:37;;;;;;;;;1.00;1.00;;;27.26;100908.44;;;;117096;1193;25469;-64
2022/09/20 11:16:10;;;;;;;;;1.00;1.00;;;27.24;100904.67;;;;117017;1193;25795;-64
2022/09/20 11:19:10;;;;;;;;;0.75;0.75;;;27.22;100904.48;;;;117112;1193;25716;-64
2022/09/20 11:22:00;;;;;;;;;1.00;1.00;;;27.24;100895.98;;;;117106;1193;24919;-64
2022/09/20 11:24:41;;;;;;;;;1.33;1.00;;;27.26;100893.23;;;;117024;1192;24748;-64
2022/09/20 11:27:25;;;;;;;;;0.75;0.00;;;27.24;100890.22;;;;117105;1191;24925;-64
2022/09/20 11:30:07;;;;;;;;;2.75;1.00;;;27.24;100886.07;;;;117038;1192;25049;-65
2022/09/20 11:32:41;;;;;;;;;0.33;0.33;;;27.24;100884.38;;;;117041;1193;24790;-65
2022/09/20 11:35:09;;;;;;;;;0.00;0.00;;;27.23;100885.55;;;;117076;1192;25174;-64
2022/09/20 11:37:42;;;;;;;;;2.33;1.00;;;27.22;100882.43;;;;117070;1193;25075;-65
2022/09/20 11:40:17;;;;;;;;;1.00;1.00;;;27.21;100881.45;;;;117057;1193;25472;-64
2022/09/20 11:42:46;;;;;;;;;0.00;0.00;;;27.21;100883.98;;;;117050;1193;24808;-64
2022/09/20 11:45:15;;;;;;;;;1.00;1.00;;;27.21;100881.27;;;;117130;1193;25032;-64
2022/09/20 11:47:47;;;;;;;;;2.00;2.00;;;27.21;100880.70;;;;117107;1192;24969;-67
2022/09/20 11:50:44;;;;;;;;;1.00;1.00;;;27.19;100872.65;;;;117016;1193;25383;-65
2022/09/20 11:53:13;;;;;;;;;2.25;1.00;;;27.21;100874.95;;;;117022;1191;25346;-65
2022/09/20 11:55:58;;;;;;;;;2.67;0.67;;;27.20;100870.31;;;;117071;1193;24958;-65
2022/09/20 11:58:27;;;;;;;;;1.00;1.00;;;27.17;100865.23;;;;117063;1192;25198;-66
2022/09/20 12:00:57;;;;;;;;;1.33;1.00;;;27.18;100867.75;;;;116993;1194;25300;-65
2022/09/20 12:03:36;;;;;;;;;1.00;1.00;;;27.17;100861.85;;;;117001;1193;25037;-66
2022/09/20 12:06:37;;;;;;;;;0.00;0.00;;;27.17;100864.10;;;;117016;1192;25685;-66
2022/09/20 12:09:39;;;;;;;;;2.00;1.00;;;27.21;100863.06;;;;116966;1194;24722;-63
2022/09/20 12:12:21;;;;;;;;;2.33;1.00;;;27.26;100863.45;;;;117028;1193;25046;-63
2022/09/20 12:14:57;;;;;;;;;1.00;1.00;;;27.27;100861.66;;;;116999;1194;25347;-65
2022/09/20 12:17:44;;;;;;;;;1.00;1.00;;;27.24;100859.98;;;;116833;1194;25463;-66
2022/09/20 12:20:33;;;;;;;;;1.50;1.00;;;27.22;100854.21;;;;117042;1193;25087;-65
2022/09/20 12:23:39;;;;;;;;;0.00;0.00;;;27.19;100851.14;;;;117038;1193;25527;-64
2022/09/20 12:26:21;;;;;;;;;1.50;1.00;;;27.17;100855.50;;;;117059;1193;25434;-64
2022/09/20 12:28:58;;;;;;;;;1.00;1.00;;;27.15;100854.17;;;;117065;1193;25570;-65
2022/09/20 12:31:32;;;;;;;;;1.00;1.00;;;27.14;100854.12;;;;116885;1193;24692;-64
2022/09/20 12:34:18;;;;;;;;;2.33;1.67;;;27.13;100855.08;;;;116976;1192;24802;-65
2022/09/20 12:36:52;;;;;;;;;0.75;0.00;;;27.12;100859.51;;;;116979;1194;24820;-65
2022/09/20 12:39:28;;;;;;;;;2.00;1.00;;;27.11;100859.84;;;;116999;1193;25302;-65
2022/09/20 12:42:00;;;;;;;;;0.00;0.00;;;27.10;100863.17;;;;117033;1194;25602;-63
2022/09/20 12:44:50;;;;;;;;;2.00;1.00;;;27.11;100863.02;;;;117022;1193;26956;-65
2022/09/20 12:47:24;;;;;;;;;1.00;1.00;;;27.11;100862.95;;;;117045;1193;25724;-64
2022/09/20 12:52:49;;;;;;;;;0.50;0.50;;;27.10;100852.59;;;;117051;1193;25333;-65
2022/09/20 12:55:44;;;;;;;;;0.25;0.25;;;27.09;100849.42;;;;117011;1194;25847;-65
2022/09/20 12:58:16;;;;;;;;;0.00;0.00;;;27.08;100850.70;;;;116988;1193;25573;-65
2022/09/20 13:00:47;;;;;;;;;1.00;1.00;;;27.09;100851.08;;;;117080;1193;24806;-65
2022/09/20 13:03:28;;;;;;;;;0.75;0.75;;;27.10;100851.87;;;;117021;1194;25112;-65
2022/09/20 13:06:11;;;;;;;;;2.00;0.50;;;27.08;100853.66;;;;117023;1194;24727;-65
2022/09/20 13:08:42;;;;;;;;;1.33;1.33;;;27.08;100852.48;;;;117043;1193;25423;-64
2022/09/20 13:11:19;;;;;;;;;0.75;0.75;;;27.08;100848.52;;;;117067;1193;24905;-64
2022/09/20 13:13:56;;;;;;;;;0.75;0.75;;;27.07;100851.16;;;;117023;1193;25303;-64
2022/09/20 13:16:31;;;;;;;;;0.75;0.75;;;27.08;100851.23;;;;117032;1193;25420;-64
2022/09/20 13:19:00;;;;;;;;;2.33;0.67;;;27.08;100846.67;;;;117044;1193;24801;-64
2022/09/20 13:21:31;;;;;;;;;0.75;0.75;;;27.08;100848.64;;;;117046;1193;25030;-64
2022/09/20 13:24:01;;;;;;;;;3.00;1.50;;;27.07;100843.17;;;;116997;1192;25247;-65